Time;durP1;ratioP1;P1;durP2;ratioP2;P2;SDS_P1;SDS_P2;PMS_P1;PMS_P2;Temp;Humidity;BMP_temperature;BMP_pressure;BME280_temperature;BME280_humidity;BME280_pressure;Samples;Min_cycle;Max_cycle;Signal;HPM_P1;HPM_P2
2021/06/10 00:01:27;;;;;;;1.43;1.07;;;21.10;58.70;;;;;;5083225;28;20422;-45
2021/06/10 00:03:57;;;;;;;1.10;1.00;;;21.10;59.40;;;;;;5079479;28;20456;-51
2021/06/10 00:06:29;;;;;;;2.10;0.90;;;21.20;57.80;;;;;;5082591;28;20453;-48
2021/06/10 00:09:00;;;;;;;1.13;1.03;;;21.20;58.00;;;;;;5082349;28;20402;-47
2021/06/10 00:11:30;;;;;;;1.17;1.10;;;21.10;58.80;;;;;;5083326;28;20508;-48
2021/06/10 00:14:01;;;;;;;1.40;1.00;;;21.00;57.70;;;;;;5082760;28;20494;-47
2021/06/10 00:16:31;;;;;;;1.33;1.00;;;20.80;59.40;;;;;;5076592;28;20448;-46
2021/06/10 00:19:02;;;;;;;2.20;1.27;;;20.50;60.20;;;;;;5062839;28;20422;-49
2021/06/10 00:21:34;;;;;;;1.10;1.00;;;20.40;61.30;;;;;;5077049;28;20418;-50
2021/06/10 00:24:05;;;;;;;3.33;1.20;;;20.50;61.30;;;;;;5081851;28;20443;-49
2021/06/10 00:26:36;;;;;;;1.30;1.20;;;20.30;61.60;;;;;;5083401;28;20457;-49
2021/06/10 00:29:07;;;;;;;1.80;1.13;;;20.30;61.60;;;;;;5079306;28;20453;-46
2021/06/10 00:31:38;;;;;;;2.20;1.33;;;20.30;62.60;;;;;;5076991;28;20503;-48
2021/06/10 00:34:08;;;;;;;0.90;0.90;;;20.40;61.30;;;;;;5080540;28;20588;-44
2021/06/10 00:36:40;;;;;;;1.20;1.00;;;20.30;61.10;;;;;;5081829;28;20566;-48
2021/06/10 00:39:11;;;;;;;1.83;1.27;;;20.20;60.30;;;;;;5081470;28;20439;-45
2021/06/10 00:41:41;;;;;;;0.80;0.80;;;20.20;60.00;;;;;;5081932;28;20426;-48
2021/06/10 00:44:12;;;;;;;0.93;0.77;;;20.00;60.50;;;;;;5081069;28;20456;-45
2021/06/10 00:47:02;;;;;;;1.20;1.10;;;20.10;60.80;;;;;;5081669;28;20494;-47
2021/06/10 00:49:33;;;;;;;1.10;0.90;;;20.30;62.40;;;;;;5079812;28;20464;-44
2021/06/10 00:52:06;;;;;;;1.37;1.13;;;20.50;61.30;;;;;;5085323;28;20478;-45
2021/06/10 00:54:38;;;;;;;1.17;1.13;;;20.50;59.90;;;;;;5085022;28;20494;-48
2021/06/10 00:57:09;;;;;;;1.53;1.00;;;20.40;59.90;;;;;;5085748;28;20429;-48
2021/06/10 00:59:40;;;;;;;1.10;1.10;;;20.40;59.60;;;;;;5085254;28;20459;-47
2021/06/10 01:02:10;;;;;;;2.00;0.80;;;20.30;59.70;;;;;;5081974;28;20524;-48
2021/06/10 01:04:41;;;;;;;0.90;0.90;;;20.20;59.40;;;;;;5084805;28;20434;-48
2021/06/10 01:07:20;;;;;;;2.60;0.80;;;20.30;59.00;;;;;;5086117;28;20463;-45
2021/06/10 01:09:57;;;;;;;1.00;0.70;;;20.30;59.50;;;;;;5084061;28;20451;-48
2021/06/10 01:12:35;;;;;;;0.67;0.60;;;20.30;59.90;;;;;;5085820;28;20462;-48
2021/06/10 01:15:08;;;;;;;0.80;0.70;;;20.30;59.60;;;;;;5079760;28;20451;-46
2021/06/10 01:17:43;;;;;;;0.60;0.60;;;20.30;58.40;;;;;;5071988;28;20460;-48
2021/06/10 01:20:15;;;;;;;1.13;0.60;;;20.20;58.40;;;;;;5084930;28;20425;-45
2021/06/10 01:23:00;;;;;;;0.77;0.77;;;20.00;60.00;;;;;;5085327;28;20929;-46
2021/06/10 01:25:43;;;;;;;1.00;0.90;;;20.00;60.90;;;;;;5076891;28;20459;-46
2021/06/10 01:28:18;;;;;;;2.50;1.10;;;20.00;60.40;;;;;;5085678;28;20456;-52
2021/06/10 01:30:52;;;;;;;0.80;0.80;;;19.80;62.10;;;;;;5085502;28;20774;-50
2021/06/10 01:33:26;;;;;;;0.90;0.90;;;19.70;61.00;;;;;;5086045;28;20503;-46
2021/06/10 01:35:59;;;;;;;1.00;0.80;;;19.60;62.10;;;;;;5084295;28;20490;-47
2021/06/10 01:38:31;;;;;;;0.90;0.60;;;19.50;62.00;;;;;;5085651;28;20475;-45
2021/06/10 01:41:03;;;;;;;0.67;0.67;;;19.40;62.90;;;;;;5083903;28;20461;-51
2021/06/10 01:43:38;;;;;;;0.80;0.80;;;19.40;63.50;;;;;;5085090;28;20430;-48
2021/06/10 01:46:11;;;;;;;1.27;0.90;;;19.40;63.80;;;;;;5084598;28;20479;-45
2021/06/10 01:48:45;;;;;;;0.80;0.60;;;19.40;63.90;;;;;;5074190;28;20439;-45
2021/06/10 01:51:17;;;;;;;1.23;0.90;;;19.20;64.40;;;;;;5084727;28;20470;-49
2021/06/10 01:53:49;;;;;;;1.47;1.40;;;19.20;64.60;;;;;;5085103;28;20479;-49
2021/06/10 01:56:23;;;;;;;1.30;0.90;;;19.20;65.30;;;;;;5083474;28;20442;-47
2021/06/10 01:58:56;;;;;;;1.60;1.20;;;19.10;65.10;;;;;;5085004;28;20425;-47
2021/06/10 02:01:29;;;;;;;1.37;0.90;;;19.10;64.90;;;;;;5083794;28;20459;-44
2021/06/10 02:04:02;;;;;;;1.33;1.23;;;19.00;64.90;;;;;;5082452;28;20459;-46
2021/06/10 02:06:34;;;;;;;1.00;0.90;;;18.90;65.90;;;;;;5083635;28;20455;-48
2021/06/10 02:09:06;;;;;;;0.70;0.70;;;19.00;65.70;;;;;;5083525;28;20451;-46
2021/06/10 02:11:37;;;;;;;1.13;0.70;;;19.00;65.30;;;;;;5084296;28;20478;-44
2021/06/10 02:14:10;;;;;;;0.60;0.60;;;19.00;65.00;;;;;;5083823;28;20503;-45
2021/06/10 02:16:43;;;;;;;0.50;0.50;;;18.90;64.60;;;;;;5083574;28;20418;-44
2021/06/10 02:19:15;;;;;;;0.70;0.70;;;18.90;64.20;;;;;;5083330;28;20461;-44
2021/06/10 02:21:46;;;;;;;0.50;0.50;;;18.70;64.90;;;;;;5081286;28;20479;-46
2021/06/10 02:24:17;;;;;;;0.60;0.50;;;18.60;65.10;;;;;;5082532;28;20510;-48
2021/06/10 02:26:48;;;;;;;0.90;0.80;;;18.50;65.50;;;;;;5082762;28;20454;-45
2021/06/10 02:29:20;;;;;;;1.20;0.60;;;18.40;66.00;;;;;;5083759;28;20483;-47
2021/06/10 02:31:50;;;;;;;0.60;0.50;;;18.40;65.70;;;;;;5084299;28;20474;-45
2021/06/10 02:34:21;;;;;;;0.60;0.60;;;18.20;65.30;;;;;;5068887;28;20476;-47
2021/06/10 02:36:52;;;;;;;0.53;0.53;;;18.10;65.90;;;;;;5068971;28;20457;-46
2021/06/10 02:39:23;;;;;;;0.50;0.50;;;18.10;65.80;;;;;;5075192;28;20533;-43
2021/06/10 02:41:55;;;;;;;0.50;0.40;;;18.10;64.50;;;;;;5084124;28;20451;-48
2021/06/10 02:44:29;;;;;;;0.67;0.67;;;18.10;64.80;;;;;;5068927;28;20479;-42
2021/06/10 02:47:03;;;;;;;0.83;0.80;;;18.10;65.60;;;;;;5082961;28;20465;-47
2021/06/10 02:49:34;;;;;;;1.30;1.10;;;18.00;65.10;;;;;;5083822;28;20440;-44
2021/06/10 02:52:08;;;;;;;1.40;1.30;;;18.00;64.60;;;;;;5083114;28;20443;-43
2021/06/10 02:54:39;;;;;;;0.87;0.60;;;17.90;64.90;;;;;;5078917;28;20510;-45
2021/06/10 02:57:10;;;;;;;0.60;0.50;;;17.80;64.80;;;;;;5082978;28;20439;-42
2021/06/10 03:00:00;;;;;;;0.90;0.60;;;17.70;65.90;;;;;;5083049;28;20472;-43
2021/06/10 03:02:44;;;;;;;0.60;0.50;;;17.70;66.60;;;;;;5068992;28;20547;-43
2021/06/10 03:05:21;;;;;;;0.50;0.50;;;17.60;68.10;;;;;;5078624;28;20466;-43
2021/06/10 03:07:52;;;;;;;0.60;0.60;;;17.60;68.40;;;;;;5083534;28;20439;-43
2021/06/10 03:10:32;;;;;;;3.30;0.60;;;17.50;67.90;;;;;;5081818;28;20459;-43
2021/06/10 03:13:07;;;;;;;0.83;0.40;;;17.50;68.50;;;;;;5081922;28;20513;-42
2021/06/10 03:15:40;;;;;;;2.77;0.60;;;17.50;67.60;;;;;;5071950;28;20451;-46
2021/06/10 03:18:11;;;;;;;1.37;0.90;;;17.40;68.00;;;;;;5082761;28;20462;-42
2021/06/10 03:20:42;;;;;;;0.83;0.57;;;17.40;68.40;;;;;;5081120;28;20724;-44
2021/06/10 03:23:13;;;;;;;0.70;0.70;;;17.30;69.50;;;;;;5083321;28;20438;-44
2021/06/10 03:25:44;;;;;;;0.57;0.57;;;17.20;70.10;;;;;;5081562;28;20443;-47
2021/06/10 03:28:16;;;;;;;0.60;0.60;;;17.10;70.40;;;;;;5082507;28;20952;-44
2021/06/10 03:30:48;;;;;;;0.90;0.90;;;17.10;70.50;;;;;;5075796;28;20486;-43
2021/06/10 03:33:22;;;;;;;2.03;0.60;;;17.00;71.90;;;;;;5083357;28;20464;-44
2021/06/10 03:35:55;;;;;;;0.40;0.40;;;17.00;72.70;;;;;;5082595;28;20439;-45
2021/06/10 03:38:27;;;;;;;1.47;0.80;;;16.90;74.00;;;;;;5082168;28;20450;-48
2021/06/10 03:40:58;;;;;;;0.70;0.70;;;16.90;75.00;;;;;;5081441;28;20443;-48
2021/06/10 03:43:29;;;;;;;0.47;0.47;;;16.80;76.50;;;;;;5082962;28;20447;-47
2021/06/10 03:46:06;;;;;;;1.10;0.80;;;16.70;77.10;;;;;;5082256;28;21106;-45
2021/06/10 03:48:40;;;;;;;0.70;0.67;;;16.70;77.90;;;;;;5079704;28;20456;-44
2021/06/10 03:51:14;;;;;;;0.80;0.80;;;16.60;79.50;;;;;;5081991;28;20444;-45
2021/06/10 03:53:45;;;;;;;1.20;0.80;;;16.60;80.10;;;;;;5083151;28;20500;-43
2021/06/10 03:56:16;;;;;;;0.73;0.67;;;16.50;80.80;;;;;;5081409;28;20485;-44
2021/06/10 03:58:46;;;;;;;1.47;0.60;;;16.40;81.50;;;;;;5082129;28;20475;-50
2021/06/10 04:01:18;;;;;;;1.00;0.80;;;16.40;82.20;;;;;;5082761;28;20475;-47
2021/06/10 04:03:49;;;;;;;0.57;0.47;;;16.30;82.30;;;;;;5082628;28;20455;-48
2021/06/10 04:06:28;;;;;;;1.23;0.80;;;16.30;82.60;;;;;;5082164;28;20443;-42
2021/06/10 04:08:59;;;;;;;0.80;0.80;;;16.20;83.40;;;;;;5065432;28;20519;-44
2021/06/10 04:11:30;;;;;;;1.33;0.90;;;16.20;84.70;;;;;;5083163;28;20440;-43
2021/06/10 04:14:01;;;;;;;0.60;0.50;;;16.10;85.60;;;;;;5082089;28;20562;-44
2021/06/10 04:16:33;;;;;;;0.70;0.70;;;16.00;86.50;;;;;;5082472;28;20451;-44
2021/06/10 04:19:04;;;;;;;1.10;0.70;;;15.90;87.70;;;;;;5071209;28;20447;-43
2021/06/10 04:21:35;;;;;;;0.70;0.70;;;15.90;88.30;;;;;;5082342;28;20467;-43
2021/06/10 04:24:06;;;;;;;0.83;0.83;;;15.80;89.50;;;;;;5081166;28;20498;-44
2021/06/10 04:26:39;;;;;;;0.57;0.57;;;15.80;90.40;;;;;;5086721;28;20448;-46
2021/06/10 04:29:10;;;;;;;1.03;0.80;;;15.70;90.90;;;;;;5086428;28;20585;-44
2021/06/10 04:31:42;;;;;;;1.30;0.87;;;15.60;91.40;;;;;;5085686;28;20486;-44
2021/06/10 04:34:12;;;;;;;0.70;0.70;;;15.50;92.20;;;;;;5085815;28;20479;-43
2021/06/10 04:36:43;;;;;;;1.00;0.90;;;15.50;92.60;;;;;;5082430;28;20440;-43
2021/06/10 04:39:13;;;;;;;2.87;0.90;;;15.40;93.00;;;;;;5084939;28;21341;-43
2021/06/10 04:41:44;;;;;;;1.67;0.90;;;15.50;93.10;;;;;;5086047;28;20946;-42
2021/06/10 04:44:15;;;;;;;1.10;1.00;;;15.50;93.20;;;;;;5085477;28;20455;-43
2021/06/10 04:46:48;;;;;;;0.80;0.80;;;15.40;93.50;;;;;;5085956;28;20456;-42
2021/06/10 04:49:18;;;;;;;0.63;0.63;;;15.40;93.90;;;;;;5079806;28;20463;-46
2021/06/10 04:51:49;;;;;;;0.90;0.80;;;15.30;94.60;;;;;;5072978;28;20472;-45
2021/06/10 04:54:19;;;;;;;1.00;0.90;;;15.30;95.00;;;;;;5081699;28;20479;-44
2021/06/10 04:56:50;;;;;;;1.53;0.87;;;15.30;95.70;;;;;;5085700;28;20451;-45
2021/06/10 04:59:21;;;;;;;0.80;0.80;;;15.20;96.50;;;;;;5082249;28;20459;-43
2021/06/10 05:01:53;;;;;;;0.80;0.80;;;15.20;97.30;;;;;;5085608;28;20436;-42
2021/06/10 05:04:24;;;;;;;0.90;0.90;;;15.10;98.10;;;;;;5085205;28;20458;-45
2021/06/10 05:06:55;;;;;;;0.80;0.80;;;15.10;98.90;;;;;;5086216;28;20439;-44
2021/06/10 05:09:26;;;;;;;1.10;1.00;;;15.10;99.70;;;;;;5085065;28;21135;-45
2021/06/10 05:11:56;;;;;;;1.40;1.13;;;15.00;99.90;;;;;;5086253;28;20451;-49
2021/06/10 05:14:27;;;;;;;1.80;1.13;;;15.00;99.90;;;;;;5085111;28;20527;-42
2021/06/10 05:16:59;;;;;;;1.00;0.90;;;15.00;99.90;;;;;;5085517;28;20466;-50
2021/06/10 05:19:30;;;;;;;1.00;0.90;;;15.00;99.90;;;;;;5084513;28;20490;-43
2021/06/10 05:22:00;;;;;;;0.97;0.63;;;14.90;99.90;;;;;;5085410;28;20447;-46
2021/06/10 05:24:30;;;;;;;2.63;1.20;;;14.80;99.90;;;;;;5083919;28;20458;-44
2021/06/10 05:27:01;;;;;;;1.13;1.03;;;14.70;99.90;;;;;;5085635;28;20448;-42
2021/06/10 05:29:32;;;;;;;1.00;0.83;;;14.80;99.90;;;;;;5085040;28;20452;-42
2021/06/10 05:32:04;;;;;;;1.27;1.00;;;14.70;99.90;;;;;;5085887;28;20462;-43
2021/06/10 05:34:35;;;;;;;1.93;0.93;;;14.70;99.90;;;;;;5084781;28;20507;-43
2021/06/10 05:37:06;;;;;;;1.17;1.07;;;14.60;99.90;;;;;;5068814;28;20551;-43
2021/06/10 05:39:36;;;;;;;2.77;1.13;;;14.50;99.90;;;;;;5083995;28;20485;-46
2021/06/10 05:42:08;;;;;;;0.90;0.90;;;14.50;99.90;;;;;;5084887;28;20940;-44
2021/06/10 05:44:39;;;;;;;1.37;1.10;;;14.40;99.90;;;;;;5084365;28;20506;-42
2021/06/10 05:47:13;;;;;;;1.03;0.80;;;14.40;99.90;;;;;;5068955;28;20444;-44
2021/06/10 05:49:43;;;;;;;1.50;0.90;;;14.30;99.90;;;;;;5078880;28;20471;-44
2021/06/10 05:52:13;;;;;;;1.37;1.00;;;14.30;99.90;;;;;;5085248;28;20447;-47
2021/06/10 05:54:44;;;;;;;1.77;1.20;;;14.10;99.90;;;;;;5083259;28;20518;-43
2021/06/10 05:57:14;;;;;;;0.77;0.77;;;14.10;99.90;;;;;;5084233;28;20447;-47
2021/06/10 05:59:47;;;;;;;1.30;1.10;;;14.00;99.90;;;;;;5082989;28;20455;-50
2021/06/10 06:02:20;;;;;;;1.97;1.40;;;14.00;99.90;;;;;;5084699;28;20455;-43
2021/06/10 06:04:50;;;;;;;1.13;1.03;;;13.90;99.90;;;;;;5084451;28;20443;-43
2021/06/10 06:07:21;;;;;;;1.10;1.00;;;13.90;99.90;;;;;;5081122;28;20440;-43
2021/06/10 06:09:51;;;;;;;1.33;1.23;;;13.90;99.90;;;;;;5082861;28;20528;-43
2021/06/10 06:12:23;;;;;;;1.47;1.00;;;13.70;99.90;;;;;;5084261;28;20484;-44
2021/06/10 06:14:54;;;;;;;3.43;1.23;;;13.60;99.90;;;;;;5084054;28;20972;-46
2021/06/10 06:17:26;;;;;;;1.17;1.07;;;13.50;99.90;;;;;;5083663;28;20470;-43
2021/06/10 06:19:59;;;;;;;1.30;1.10;;;13.50;99.90;;;;;;5082898;28;20479;-45
2021/06/10 06:22:29;;;;;;;3.13;0.80;;;13.50;99.90;;;;;;5084165;28;20470;-43
2021/06/10 06:25:00;;;;;;;2.33;1.10;;;13.40;99.90;;;;;;5083037;28;20479;-43
2021/06/10 06:27:31;;;;;;;3.53;1.03;;;13.30;99.90;;;;;;5067891;28;20451;-43
2021/06/10 06:30:01;;;;;;;1.20;1.10;;;13.30;99.90;;;;;;5082917;28;20463;-46
2021/06/10 06:32:35;;;;;;;0.90;0.90;;;13.30;99.90;;;;;;5083565;28;20462;-44
2021/06/10 06:35:07;;;;;;;0.80;0.80;;;13.30;99.90;;;;;;5084293;28;20487;-44
2021/06/10 06:37:37;;;;;;;1.33;0.70;;;13.20;99.90;;;;;;5084038;28;20452;-42
2021/06/10 06:40:09;;;;;;;1.57;0.87;;;13.30;99.90;;;;;;5082545;28;20521;-45
2021/06/10 06:42:40;;;;;;;1.10;0.97;;;13.20;99.90;;;;;;5083398;28;20451;-43
2021/06/10 06:45:11;;;;;;;0.80;0.80;;;13.20;99.90;;;;;;5082580;28;20565;-44
2021/06/10 06:47:44;;;;;;;1.60;1.00;;;13.20;99.90;;;;;;5083316;28;20509;-45
2021/06/10 06:50:15;;;;;;;2.40;0.80;;;13.10;99.90;;;;;;5076855;28;20459;-45
2021/06/10 06:52:45;;;;;;;1.43;1.00;;;13.10;99.90;;;;;;5083531;28;20451;-47
2021/06/10 06:55:16;;;;;;;1.10;1.10;;;13.10;99.90;;;;;;5081753;28;20496;-45
2021/06/10 06:57:46;;;;;;;0.83;0.83;;;13.10;99.90;;;;;;5083887;28;20490;-43
2021/06/10 07:00:18;;;;;;;1.30;0.90;;;13.00;99.90;;;;;;5082780;28;20444;-43
2021/06/10 07:02:50;;;;;;;0.93;0.90;;;13.00;99.90;;;;;;5083177;28;20475;-43
2021/06/10 07:05:21;;;;;;;1.93;0.90;;;13.00;99.90;;;;;;5082911;28;20440;-43
2021/06/10 07:07:51;;;;;;;1.17;1.07;;;12.90;99.90;;;;;;5083361;28;20822;-42
2021/06/10 07:10:22;;;;;;;1.23;1.13;;;12.80;99.90;;;;;;5081824;28;20470;-46
2021/06/10 07:12:53;;;;;;;1.37;1.27;;;12.70;99.90;;;;;;5083669;28;20451;-45
2021/06/10 07:15:23;;;;;;;1.00;1.00;;;12.70;99.90;;;;;;5082816;28;20482;-46
2021/06/10 07:17:55;;;;;;;1.20;1.10;;;12.70;99.90;;;;;;5083089;28;20456;-42
2021/06/10 07:20:27;;;;;;;1.20;0.97;;;12.60;99.90;;;;;;5082014;28;20460;-44
2021/06/10 07:22:57;;;;;;;1.17;1.10;;;12.50;99.90;;;;;;5076006;28;20866;-44
2021/06/10 07:25:28;;;;;;;1.00;1.00;;;12.30;99.90;;;;;;5082041;28;20463;-44
2021/06/10 07:27:58;;;;;;;1.30;1.20;;;12.30;99.90;;;;;;5071926;28;20835;-49
2021/06/10 07:30:29;;;;;;;1.43;1.00;;;12.30;99.90;;;;;;5081938;28;20475;-45
2021/06/10 07:33:01;;;;;;;1.07;0.87;;;12.20;99.90;;;;;;5082996;28;20830;-48
2021/06/10 07:35:33;;;;;;;1.20;1.10;;;12.30;99.90;;;;;;5082116;28;20486;-46
2021/06/10 07:38:05;;;;;;;0.90;0.90;;;12.40;99.90;;;;;;5066567;28;20888;-45
2021/06/10 07:40:35;;;;;;;1.67;0.93;;;12.50;99.90;;;;;;5081234;28;20455;-46
2021/06/10 07:43:06;;;;;;;2.70;0.90;;;12.60;99.90;;;;;;5082367;28;20504;-49
2021/06/10 07:45:37;;;;;;;1.27;0.70;;;12.70;99.90;;;;;;5082325;28;20506;-47
2021/06/10 07:48:10;;;;;;;0.87;0.87;;;12.80;99.90;;;;;;5082545;28;20543;-46
2021/06/10 07:50:41;;;;;;;1.17;0.83;;;12.90;99.90;;;;;;5081886;28;20440;-50
2021/06/10 07:53:11;;;;;;;0.50;0.50;;;13.00;99.90;;;;;;5082982;28;20479;-45
2021/06/10 07:55:43;;;;;;;1.27;0.70;;;13.10;99.90;;;;;;5081538;28;20571;-48
2021/06/10 07:58:14;;;;;;;0.90;0.90;;;13.10;99.90;;;;;;5082152;28;20451;-45
2021/06/10 08:00:44;;;;;;;1.40;0.77;;;13.20;99.90;;;;;;5081119;28;20905;-49
2021/06/10 08:03:16;;;;;;;4.63;0.80;;;13.30;99.90;;;;;;5082317;28;20526;-45
2021/06/10 08:05:47;;;;;;;1.47;0.63;;;13.30;99.90;;;;;;5082245;28;20452;-43
2021/06/10 08:08:17;;;;;;;1.63;1.10;;;13.30;99.90;;;;;;5082553;28;20452;-44
2021/06/10 08:10:49;;;;;;;1.00;0.90;;;13.20;99.90;;;;;;5080812;28;20455;-45
2021/06/10 08:13:21;;;;;;;2.87;0.80;;;13.20;99.90;;;;;;5082081;28;20476;-45
2021/06/10 08:15:52;;;;;;;1.20;1.10;;;13.30;99.90;;;;;;5081878;28;20536;-45
2021/06/10 08:18:26;;;;;;;0.83;0.80;;;13.30;99.90;;;;;;5082348;28;20515;-43
2021/06/10 08:20:57;;;;;;;3.67;0.70;;;13.20;99.90;;;;;;5081137;28;20451;-43
2021/06/10 08:23:29;;;;;;;0.90;0.90;;;13.20;99.90;;;;;;5082618;28;20458;-43
2021/06/10 08:26:02;;;;;;;1.30;0.70;;;13.20;99.90;;;;;;5081322;28;20484;-43
2021/06/10 08:28:33;;;;;;;1.40;1.20;;;13.20;99.90;;;;;;5082320;28;20467;-43
2021/06/10 08:31:03;;;;;;;1.50;1.10;;;13.30;99.90;;;;;;5081507;28;20456;-43
2021/06/10 08:33:35;;;;;;;0.93;0.90;;;13.30;99.90;;;;;;5081810;28;20765;-43
2021/06/10 08:36:07;;;;;;;1.43;1.17;;;13.30;99.90;;;;;;5081570;28;20798;-46
2021/06/10 08:38:38;;;;;;;3.43;1.10;;;13.30;99.90;;;;;;5081980;28;20504;-45
2021/06/10 08:41:08;;;;;;;1.10;0.90;;;13.20;99.90;;;;;;5080569;28;20494;-43
2021/06/10 08:43:39;;;;;;;1.17;1.07;;;13.20;99.90;;;;;;5081728;28;20459;-44
2021/06/10 08:46:12;;;;;;;1.37;1.27;;;13.20;99.90;;;;;;5081645;28;20510;-46
2021/06/10 08:48:47;;;;;;;1.30;0.80;;;13.20;99.90;;;;;;5082259;28;20515;-44
2021/06/10 08:51:18;;;;;;;1.10;1.10;;;13.20;99.90;;;;;;5081652;28;20447;-45
2021/06/10 08:53:50;;;;;;;0.87;0.87;;;13.10;99.90;;;;;;5069221;28;20475;-43
2021/06/10 08:56:22;;;;;;;0.93;0.93;;;13.00;99.90;;;;;;5081565;28;20494;-45
2021/06/10 08:58:52;;;;;;;1.10;1.10;;;12.90;99.90;;;;;;5081683;28;20456;-43
2021/06/10 09:01:23;;;;;;;1.37;1.30;;;12.90;99.90;;;;;;5081603;28;20471;-43
2021/06/10 09:03:55;;;;;;;1.53;1.43;;;12.80;99.90;;;;;;5081542;28;20605;-43
2021/06/10 09:06:26;;;;;;;1.40;1.30;;;12.80;99.90;;;;;;5082048;28;20447;-44
2021/06/10 09:08:58;;;;;;;1.47;1.30;;;12.70;99.90;;;;;;5081212;28;20486;-44
2021/06/10 09:11:29;;;;;;;2.27;1.40;;;12.70;99.90;;;;;;5081576;28;20471;-44
2021/06/10 09:14:00;;;;;;;1.47;1.13;;;12.60;99.90;;;;;;5084314;28;20448;-42
2021/06/10 09:16:32;;;;;;;1.37;1.27;;;12.60;99.90;;;;;;5086039;28;20594;-43
2021/06/10 09:19:08;;;;;;;2.97;1.43;;;12.60;99.90;;;;;;5083965;28;20843;-43
2021/06/10 09:21:40;;;;;;;1.53;1.43;;;12.50;99.90;;;;;;5084697;28;20474;-43
2021/06/10 09:24:27;;;;;;;2.43;1.27;;;12.50;99.90;;;;;;5083711;28;20448;-44
2021/06/10 09:27:03;;;;;;;1.47;1.37;;;12.50;99.90;;;;;;5085382;28;20507;-43
2021/06/10 09:29:42;;;;;;;1.50;1.20;;;12.40;99.90;;;;;;5084973;28;20470;-44
2021/06/10 09:32:20;;;;;;;2.37;1.50;;;12.50;99.90;;;;;;5084964;28;20487;-44
2021/06/10 09:34:55;;;;;;;1.27;1.10;;;12.50;99.90;;;;;;5085046;28;20784;-44
2021/06/10 09:37:30;;;;;;;1.13;1.07;;;12.50;99.90;;;;;;5085307;28;20471;-46
2021/06/10 09:40:04;;;;;;;1.50;1.40;;;12.50;99.90;;;;;;5083762;28;20454;-42
2021/06/10 09:42:36;;;;;;;1.37;1.27;;;12.50;99.90;;;;;;5084232;28;20459;-44
2021/06/10 09:47:59;;;;;;;1.30;0.90;;;12.60;99.90;;;;;;5084224;28;20466;-43
2021/06/10 09:50:37;;;;;;;1.33;1.23;;;12.60;99.90;;;;;;5084693;28;21738;-45
2021/06/10 09:53:13;;;;;;;1.83;1.00;;;12.60;99.90;;;;;;5085233;28;20444;-44
2021/06/10 09:55:45;;;;;;;1.00;1.00;;;12.60;99.90;;;;;;5083800;28;20531;-45
2021/06/10 09:58:33;;;;;;;1.60;1.27;;;12.60;99.90;;;;;;5084986;28;20507;-43
2021/06/10 10:01:07;;;;;;;0.97;0.97;;;12.60;99.90;;;;;;5083836;28;20551;-43
2021/06/10 10:03:41;;;;;;;1.00;1.00;;;12.60;99.90;;;;;;5084447;28;20535;-43
2021/06/10 10:06:23;;;;;;;2.20;1.07;;;12.60;99.90;;;;;;5075445;28;20474;-43
2021/06/10 10:08:59;;;;;;;1.20;1.20;;;12.60;99.90;;;;;;5083666;28;20455;-43
2021/06/10 10:11:32;;;;;;;1.90;1.10;;;12.60;99.90;;;;;;5083987;28;20447;-43
2021/06/10 10:14:06;;;;;;;1.00;0.90;;;12.60;99.90;;;;;;5084709;28;20682;-42
2021/06/10 10:16:37;;;;;;;0.97;0.97;;;12.70;99.90;;;;;;5073655;28;20507;-44
2021/06/10 10:19:08;;;;;;;1.30;1.07;;;12.70;99.90;;;;;;5083500;28;20982;-44
2021/06/10 10:21:42;;;;;;;1.73;0.80;;;12.70;99.90;;;;;;5083861;28;20448;-44
2021/06/10 10:24:13;;;;;;;1.40;0.77;;;12.60;99.90;;;;;;5083043;28;20463;-44
2021/06/10 10:26:44;;;;;;;0.87;0.83;;;12.60;99.90;;;;;;5068762;28;20734;-44
2021/06/10 10:29:17;;;;;;;1.23;0.70;;;12.70;99.90;;;;;;5084324;28;20467;-45
2021/06/10 10:31:50;;;;;;;0.80;0.80;;;12.80;99.90;;;;;;5084287;28;20502;-45
2021/06/10 10:34:25;;;;;;;0.80;0.63;;;12.80;99.90;;;;;;5083581;28;20486;-43
2021/06/10 10:36:57;;;;;;;1.60;0.80;;;12.80;99.90;;;;;;5079510;28;20568;-42
2021/06/10 10:39:34;;;;;;;0.60;0.60;;;12.80;99.90;;;;;;5072494;28;20475;-42
2021/06/10 10:42:06;;;;;;;1.00;0.67;;;12.80;99.90;;;;;;5083983;28;20451;-44
2021/06/10 10:44:38;;;;;;;1.00;0.60;;;12.90;99.90;;;;;;5084060;28;20529;-42
2021/06/10 10:47:10;;;;;;;0.60;0.60;;;12.90;99.90;;;;;;5079794;28;20478;-43
2021/06/10 10:49:42;;;;;;;1.00;0.90;;;12.90;99.90;;;;;;5083063;28;20469;-43
2021/06/10 10:52:37;;;;;;;0.80;0.80;;;13.00;99.90;;;;;;5080086;28;20455;-43
2021/06/10 10:55:19;;;;;;;0.60;0.60;;;13.00;99.90;;;;;;5082705;28;20467;-44
2021/06/10 10:58:05;;;;;;;1.47;0.60;;;13.00;99.90;;;;;;5083619;28;20812;-47
2021/06/10 11:00:55;;;;;;;0.80;0.80;;;12.90;99.90;;;;;;5078433;28;20448;-45
2021/06/10 11:03:29;;;;;;;0.80;0.70;;;12.90;99.90;;;;;;5083342;28;20475;-43
2021/06/10 11:06:02;;;;;;;0.60;0.60;;;13.00;99.90;;;;;;5083193;28;20448;-43
2021/06/10 11:09:04;;;;;;;0.87;0.60;;;13.00;99.90;;;;;;5083655;28;20452;-44
2021/06/10 11:11:59;;;;;;;0.80;0.57;;;12.90;99.90;;;;;;5081042;28;20481;-44
2021/06/10 11:14:37;;;;;;;0.80;0.80;;;12.70;99.90;;;;;;5067629;28;20443;-45
2021/06/10 11:17:30;;;;;;;1.10;0.70;;;12.70;99.90;;;;;;5084781;28;20559;-44
2021/06/10 11:20:02;;;;;;;0.67;0.67;;;12.80;99.90;;;;;;5080908;28;20471;-47
2021/06/10 11:22:36;;;;;;;1.00;1.00;;;12.70;99.90;;;;;;5080493;28;20452;-43
2021/06/10 11:25:11;;;;;;;2.40;0.63;;;12.70;99.90;;;;;;5082394;28;20952;-48
2021/06/10 11:27:46;;;;;;;1.63;0.60;;;12.70;99.90;;;;;;5083092;28;20458;-47
2021/06/10 11:30:21;;;;;;;0.83;0.70;;;12.70;99.90;;;;;;5083066;28;20467;-43
2021/06/10 11:33:05;;;;;;;0.70;0.70;;;12.70;99.90;;;;;;5083031;28;20450;-46
2021/06/10 11:35:42;;;;;;;0.97;0.90;;;12.70;99.90;;;;;;5074038;28;20455;-50
2021/06/10 11:38:19;;;;;;;2.33;0.70;;;12.60;99.90;;;;;;5083310;28;20536;-49
2021/06/10 11:41:02;;;;;;;1.00;1.00;;;12.70;99.90;;;;;;5068147;28;20475;-47
2021/06/10 11:43:33;;;;;;;0.63;0.63;;;12.70;99.90;;;;;;5082603;28;20447;-44
2021/06/10 11:46:08;;;;;;;0.70;0.70;;;12.70;99.90;;;;;;5079146;28;20513;-43
2021/06/10 11:48:41;;;;;;;0.73;0.73;;;12.70;99.90;;;;;;5082868;28;20431;-48
2021/06/10 11:51:20;;;;;;;0.80;0.80;;;12.70;99.90;;;;;;5082200;28;20448;-45
2021/06/10 11:53:52;;;;;;;0.93;0.83;;;12.70;99.90;;;;;;5082554;28;20478;-48
2021/06/10 11:56:27;;;;;;;0.93;0.67;;;12.80;99.90;;;;;;5082568;28;20475;-45
2021/06/10 11:59:03;;;;;;;0.97;0.83;;;12.90;99.90;;;;;;5083148;28;20534;-43
2021/06/10 12:01:33;;;;;;;0.70;0.70;;;12.90;99.90;;;;;;5083040;28;20447;-47
2021/06/10 12:04:09;;;;;;;1.03;1.00;;;12.80;99.90;;;;;;5082490;28;20991;-46
2021/06/10 12:06:40;;;;;;;1.10;0.80;;;12.80;99.90;;;;;;5082593;28;20477;-47
2021/06/10 12:09:17;;;;;;;1.63;0.90;;;12.90;99.90;;;;;;5069959;28;20772;-42
2021/06/10 12:11:52;;;;;;;1.90;0.90;;;12.80;99.90;;;;;;5083389;28;20455;-46
2021/06/10 12:14:22;;;;;;;2.30;1.07;;;12.70;99.90;;;;;;5082611;28;20485;-43
2021/06/10 12:17:02;;;;;;;2.70;1.10;;;12.70;99.90;;;;;;5082869;28;20479;-48
2021/06/10 12:19:32;;;;;;;0.90;0.80;;;12.70;99.90;;;;;;5082361;28;20443;-44
2021/06/10 12:22:04;;;;;;;1.53;0.67;;;12.60;99.90;;;;;;5083106;28;20511;-43
2021/06/10 12:24:42;;;;;;;3.27;0.83;;;12.70;99.90;;;;;;5065770;28;20554;-42
2021/06/10 12:27:20;;;;;;;1.27;1.17;;;12.70;99.90;;;;;;5082971;28;20486;-43
2021/06/10 12:29:51;;;;;;;1.50;1.00;;;12.70;99.90;;;;;;5082675;28;20557;-43
2021/06/10 12:32:29;;;;;;;1.00;1.00;;;12.60;99.90;;;;;;5079991;28;20511;-46
2021/06/10 12:35:00;;;;;;;1.10;1.00;;;12.60;99.90;;;;;;5082166;28;20447;-42
2021/06/10 12:37:30;;;;;;;1.10;0.90;;;12.60;99.90;;;;;;5082780;28;20495;-42
2021/06/10 12:40:02;;;;;;;1.93;1.20;;;12.60;99.90;;;;;;5081611;28;20486;-42
2021/06/10 12:42:34;;;;;;;1.20;0.93;;;12.60;99.90;;;;;;5082584;28;20462;-44
2021/06/10 12:45:05;;;;;;;0.90;0.90;;;12.60;99.90;;;;;;5081620;28;20474;-42
2021/06/10 12:47:37;;;;;;;2.30;0.90;;;12.70;99.90;;;;;;5086423;28;20486;-46
2021/06/10 12:50:21;;;;;;;1.20;1.20;;;12.60;99.90;;;;;;5085759;28;20204;-46
2021/06/10 12:52:51;;;;;;;0.93;0.93;;;12.60;99.90;;;;;;5086456;28;20470;-43
2021/06/10 12:55:28;;;;;;;1.10;1.00;;;12.60;99.90;;;;;;5085647;28;20472;-43
2021/06/10 12:58:01;;;;;;;1.37;1.27;;;12.60;99.90;;;;;;5086304;28;20856;-43
2021/06/10 13:00:36;;;;;;;1.23;0.90;;;12.70;99.90;;;;;;5085525;28;20443;-43
2021/06/10 13:03:07;;;;;;;1.10;1.10;;;12.70;99.90;;;;;;5083466;28;20478;-44
2021/06/10 13:05:39;;;;;;;0.80;0.80;;;12.70;99.90;;;;;;5081207;28;20483;-46
2021/06/10 13:08:13;;;;;;;2.00;1.50;;;12.70;99.90;;;;;;5076161;28;20438;-43
2021/06/10 13:10:45;;;;;;;1.20;1.10;;;12.70;99.90;;;;;;5084860;28;20435;-43
2021/06/10 13:13:34;;;;;;;1.00;0.90;;;12.70;99.90;;;;;;5085108;28;20451;-45
2021/06/10 13:16:05;;;;;;;1.20;1.10;;;12.60;99.90;;;;;;5086945;28;20448;-44
2021/06/10 13:18:36;;;;;;;1.20;1.10;;;12.60;99.90;;;;;;5089129;28;20596;-45
2021/06/10 13:21:18;;;;;;;1.10;1.10;;;12.60;99.90;;;;;;5085311;28;20451;-45